createdAt,value
2023-03-04T00:00:45.763Z,2.00
2023-03-04T00:03:14.915Z,1.90
2023-03-04T00:05:41.746Z,1.80
2023-03-04T00:08:08.496Z,1.80
2023-03-04T00:10:35.071Z,1.80
2023-03-04T00:13:01.716Z,1.80
2023-03-04T00:15:28.289Z,1.70
2023-03-04T00:17:55.759Z,1.70
2023-03-04T00:20:22.382Z,1.80
2023-03-04T00:22:48.978Z,1.80
2023-03-04T00:25:15.653Z,1.70
2023-03-04T00:27:42.237Z,1.70
2023-03-04T00:30:09.290Z,1.80
2023-03-04T00:32:35.928Z,1.80
2023-03-04T00:35:02.539Z,1.80
2023-03-04T00:37:29.113Z,1.80
2023-03-04T00:39:55.694Z,1.80
2023-03-04T00:42:22.294Z,1.70
2023-03-04T00:44:49.683Z,1.70
2023-03-04T00:47:16.282Z,1.60
2023-03-04T00:49:42.925Z,1.70
2023-03-04T00:52:10.276Z,1.70
2023-03-04T00:54:36.886Z,1.70
2023-03-04T00:57:03.597Z,1.70
2023-03-04T00:59:30.272Z,1.70
2023-03-04T01:01:56.897Z,1.70
2023-03-04T01:04:23.588Z,1.70
2023-03-04T01:06:50.182Z,1.60
2023-03-04T01:09:17.118Z,1.60
2023-03-04T01:11:43.675Z,1.60
2023-03-04T01:14:10.256Z,1.60
2023-03-04T01:16:37.391Z,1.60
2023-03-04T01:19:04.005Z,1.60
2023-03-04T01:21:30.615Z,1.60
2023-03-04T01:23:57.180Z,1.60
2023-03-04T01:26:23.785Z,1.60
2023-03-04T01:28:50.422Z,1.60
2023-03-04T01:31:17.061Z,1.70
2023-03-04T01:33:43.695Z,1.70
2023-03-04T01:36:10.283Z,1.70
2023-03-04T01:38:36.866Z,1.60
2023-03-04T01:41:03.594Z,1.60
2023-03-04T01:43:30.822Z,1.60
2023-03-04T01:45:58.050Z,1.60
2023-03-04T01:48:26.245Z,1.60
2023-03-04T01:50:52.949Z,1.60
2023-03-04T01:53:26.607Z,1.70
2023-03-04T01:55:54.993Z,1.70
2023-03-04T01:58:21.715Z,1.60
2023-03-04T02:00:48.393Z,1.60
2023-03-04T02:03:16.283Z,1.50
2023-03-04T02:05:43.977Z,1.50
2023-03-04T02:08:10.889Z,1.50
2023-03-04T02:10:38.214Z,1.50
2023-03-04T02:13:05.053Z,1.40
2023-03-04T02:15:32.236Z,1.40
2023-03-04T02:17:58.997Z,1.40
2023-03-04T02:20:31.074Z,1.40
2023-03-04T02:23:20.835Z,1.40
2023-03-04T02:25:49.429Z,1.40
2023-03-04T02:28:16.471Z,1.40
2023-03-04T02:30:43.204Z,1.30
2023-03-04T02:33:19.191Z,1.30
2023-03-04T02:35:47.888Z,1.30
2023-03-04T02:38:14.501Z,1.20
2023-03-04T02:40:43.129Z,1.20
2023-03-04T02:43:11.247Z,1.20
2023-03-04T02:45:42.816Z,1.30
2023-03-04T02:48:10.059Z,1.20
2023-03-04T02:50:39.109Z,1.30
2023-03-04T02:53:06.023Z,1.30
2023-03-04T02:55:33.111Z,1.30
2023-03-04T02:57:59.685Z,1.30
2023-03-04T03:00:26.501Z,1.30
2023-03-04T03:02:53.376Z,1.20
2023-03-04T03:05:20.341Z,1.20
2023-03-04T03:07:46.968Z,1.20
2023-03-04T03:10:13.633Z,1.20
2023-03-04T03:12:40.352Z,1.20
2023-03-04T03:15:07.270Z,1.20
2023-03-04T03:17:33.838Z,1.20
2023-03-04T03:20:00.412Z,1.20
2023-03-04T03:22:26.988Z,1.20
2023-03-04T03:24:53.575Z,1.10
2023-03-04T03:27:20.140Z,1.10
2023-03-04T03:29:46.719Z,1.10
2023-03-04T03:32:13.320Z,1.20
2023-03-04T03:34:40.009Z,1.10
2023-03-04T03:37:06.659Z,1.10
2023-03-04T03:39:33.230Z,1.10
2023-03-04T03:41:59.815Z,1.00
2023-03-04T03:44:26.387Z,1.00
2023-03-04T03:46:53.018Z,1.00
2023-03-04T03:49:19.592Z,0.90
2023-03-04T03:51:46.207Z,1.00
2023-03-04T03:54:12.787Z,0.90
2023-03-04T03:56:39.424Z,0.90
2023-03-04T03:59:06.022Z,0.90
2023-03-04T04:01:33.619Z,0.90
2023-03-04T04:04:00.403Z,0.90
2023-03-04T04:06:27.027Z,0.90
2023-03-04T04:08:53.617Z,0.90
2023-03-04T04:11:20.197Z,0.80
2023-03-04T04:13:46.851Z,0.90
2023-03-04T04:16:13.579Z,0.80
2023-03-04T04:18:40.167Z,0.80
2023-03-04T04:21:06.808Z,0.90
2023-03-04T04:23:33.438Z,0.90
2023-03-04T04:26:00.018Z,0.90
2023-03-04T04:28:26.616Z,0.90
2023-03-04T04:30:53.242Z,0.90
2023-03-04T04:33:19.848Z,0.90
2023-03-04T04:35:46.566Z,0.80
2023-03-04T04:38:13.185Z,0.80
2023-03-04T04:40:39.774Z,0.80
2023-03-04T04:43:06.860Z,0.80
2023-03-04T04:45:33.906Z,0.80
2023-03-04T04:48:00.474Z,0.80
2023-03-04T04:50:27.528Z,0.80
2023-03-04T04:52:54.165Z,0.80
2023-03-04T04:55:20.740Z,0.80
2023-03-04T04:57:47.323Z,0.70
2023-03-04T05:00:14.168Z,0.70
2023-03-04T05:02:40.763Z,0.80
2023-03-04T05:05:07.476Z,0.70
2023-03-04T05:07:34.230Z,0.70
2023-03-04T05:10:00.886Z,0.80
2023-03-04T05:12:27.558Z,0.80
2023-03-04T05:14:54.128Z,0.70
2023-03-04T05:17:20.705Z,0.70
2023-03-04T05:19:47.275Z,0.70
2023-03-04T05:22:13.939Z,0.70
2023-03-04T05:24:40.528Z,0.60
2023-03-04T05:27:07.210Z,0.70
2023-03-04T05:29:33.801Z,0.70
2023-03-04T05:32:00.422Z,0.70
2023-03-04T05:34:27.037Z,0.60
2023-03-04T05:36:53.678Z,0.60
2023-03-04T05:39:20.335Z,0.60
2023-03-04T05:41:46.910Z,0.60
2023-03-04T05:44:13.483Z,0.60
2023-03-04T05:46:40.165Z,0.60
2023-03-04T05:49:06.762Z,2.60
2023-03-04T05:51:33.374Z,0.50
2023-03-04T05:53:59.949Z,0.50
2023-03-04T05:56:26.565Z,0.50
2023-03-04T05:58:54.078Z,0.60
2023-03-04T06:01:20.734Z,0.60
2023-03-04T06:03:49.217Z,0.60
2023-03-04T06:06:15.946Z,0.60
2023-03-04T06:08:42.535Z,0.60
2023-03-04T06:11:09.125Z,0.60
2023-03-04T06:13:35.748Z,0.60
2023-03-04T06:16:02.351Z,0.60
2023-03-04T06:18:29.353Z,0.60
2023-03-04T06:21:00.069Z,0.60
2023-03-04T06:23:26.804Z,0.70
2023-03-04T06:25:55.972Z,0.60
2023-03-04T06:28:22.941Z,0.70
2023-03-04T06:30:51.619Z,0.80
2023-03-04T06:33:18.395Z,0.80
2023-03-04T06:35:45.012Z,0.80
2023-03-04T06:38:11.605Z,0.80
2023-03-04T06:40:38.292Z,0.80
2023-03-04T06:43:04.922Z,0.90
2023-03-04T06:45:31.515Z,0.90
2023-03-04T06:47:58.129Z,0.90
2023-03-04T06:50:24.722Z,1.00
2023-03-04T06:52:51.308Z,1.00
2023-03-04T06:55:17.885Z,1.00
2023-03-04T06:57:44.923Z,1.10
2023-03-04T07:00:12.850Z,1.20
2023-03-04T07:02:39.450Z,1.20
2023-03-04T07:05:06.211Z,1.20
2023-03-04T07:07:32.815Z,1.30
2023-03-04T07:09:59.402Z,1.40
2023-03-04T07:12:26.065Z,1.40
2023-03-04T07:14:52.657Z,1.50
2023-03-04T07:17:19.343Z,1.50
2023-03-04T07:19:45.983Z,1.70
2023-03-04T07:22:12.576Z,1.70
2023-03-04T07:24:39.162Z,1.80
2023-03-04T07:27:05.795Z,1.80
2023-03-04T07:29:32.512Z,1.90
2023-03-04T07:31:59.171Z,1.90
2023-03-04T07:34:25.782Z,2.00
2023-03-04T07:36:52.912Z,2.20
2023-03-04T07:39:19.553Z,2.60
2023-03-04T07:41:46.119Z,2.40
2023-03-04T07:44:13.571Z,2.50
2023-03-04T07:46:40.495Z,2.50
2023-03-04T07:49:07.243Z,2.70
2023-03-04T07:51:34.987Z,3.00
2023-03-04T07:54:02.009Z,3.10
2023-03-04T07:56:30.215Z,3.20
2023-03-04T07:58:57.038Z,3.20
2023-03-04T08:01:25.581Z,3.30
2023-03-04T08:03:52.301Z,3.50
2023-03-04T08:06:19.642Z,3.60
2023-03-04T08:08:46.898Z,3.70
2023-03-04T08:11:17.700Z,3.90
2023-03-04T08:13:44.759Z,4.00
2023-03-04T08:16:18.229Z,4.10
2023-03-04T08:18:45.497Z,4.00
2023-03-04T08:21:12.380Z,4.00
2023-03-04T08:23:39.861Z,4.10
2023-03-04T08:26:11.283Z,4.20
2023-03-04T08:28:38.445Z,4.40
2023-03-04T08:31:05.202Z,4.30
2023-03-04T08:33:32.165Z,4.30
2023-03-04T08:35:58.870Z,4.20
2023-03-04T08:38:25.596Z,4.20
2023-03-04T08:40:56.254Z,4.30
2023-03-04T08:43:23.544Z,4.60
2023-03-04T08:45:50.312Z,4.80
2023-03-04T08:48:17.158Z,5.00
2023-03-04T08:50:44.994Z,5.30
2023-03-04T08:53:11.839Z,5.50
2023-03-04T08:55:39.451Z,5.70
2023-03-04T08:58:06.652Z,6.30
2023-03-04T09:00:36.240Z,6.90
2023-03-04T09:03:03.989Z,7.80
2023-03-04T09:05:30.935Z,9.90
2023-03-04T09:07:57.954Z,12.20
2023-03-04T09:10:24.663Z,10.30
2023-03-04T09:12:51.870Z,10.90
2023-03-04T09:15:18.586Z,11.40
2023-03-04T09:17:45.230Z,11.70
2023-03-04T09:20:13.078Z,11.80
2023-03-04T09:22:40.681Z,12.50
2023-03-04T09:27:39.399Z,13.30
2023-03-04T09:30:06.301Z,13.10
2023-03-04T09:32:33.102Z,12.80
2023-03-04T09:34:59.706Z,13.80
2023-03-04T09:37:26.306Z,14.60
2023-03-04T09:39:52.873Z,15.10
2023-03-04T09:42:42.432Z,15.70
2023-03-04T09:45:13.463Z,15.90
2023-03-04T09:47:40.162Z,16.20
2023-03-04T09:50:10.459Z,16.40
2023-03-04T09:52:45.955Z,16.60
2023-03-04T09:55:19.817Z,16.30
2023-03-04T09:57:53.927Z,16.60
2023-03-04T10:00:22.550Z,16.50
2023-03-04T10:03:01.519Z,16.40
2023-03-04T10:05:28.923Z,16.00
2023-03-04T10:07:57.182Z,16.80
2023-03-04T10:10:26.631Z,17.10
2023-03-04T10:12:53.960Z,17.40
2023-03-04T10:15:29.933Z,18.30
2023-03-04T10:18:00.651Z,17.70
2023-03-04T10:20:44.108Z,19.20
2023-03-04T10:23:14.683Z,16.00
2023-03-04T10:25:44.187Z,14.50
2023-03-04T10:28:23.342Z,13.60
2023-03-04T10:30:49.904Z,13.60
2023-03-04T10:33:17.929Z,14.00
2023-03-04T10:35:47.157Z,14.30
2023-03-04T10:38:15.281Z,15.20
2023-03-04T10:40:42.129Z,16.70
2023-03-04T10:43:18.737Z,17.60
2023-03-04T10:45:46.072Z,18.60
2023-03-04T10:48:26.838Z,19.70
2023-03-04T10:50:54.077Z,20.10
2023-03-04T10:53:39.367Z,19.40
2023-03-04T10:56:25.901Z,20.00
2023-03-04T10:58:52.495Z,20.20
2023-03-04T11:01:25.205Z,18.50
2023-03-04T11:03:53.704Z,19.40
2023-03-04T11:06:21.399Z,18.60
2023-03-04T11:08:55.341Z,19.00
2023-03-04T11:11:27.827Z,19.60
2023-03-04T11:13:59.789Z,20.00
2023-03-04T11:16:31.102Z,20.30
2023-03-04T11:19:04.201Z,20.50
2023-03-04T11:21:34.020Z,20.20
2023-03-04T11:24:01.943Z,19.80
2023-03-04T11:26:36.260Z,19.10
2023-03-04T11:29:13.183Z,19.20
2023-03-04T11:31:43.300Z,19.30
2023-03-04T11:34:36.340Z,18.80
2023-03-04T11:37:21.551Z,18.90
2023-03-04T11:39:57.403Z,18.40
2023-03-04T11:42:39.948Z,17.50
2023-03-04T11:45:27.471Z,16.50
2023-03-04T11:48:18.364Z,15.60
2023-03-04T11:51:00.014Z,15.10
2023-03-04T11:53:44.590Z,15.00
2023-03-04T11:56:18.706Z,15.10
2023-03-04T11:58:52.097Z,15.10
2023-03-04T12:01:27.510Z,14.70
2023-03-04T12:04:04.442Z,14.50
2023-03-04T12:06:36.964Z,15.10
2023-03-04T12:09:22.418Z,15.80
2023-03-04T12:12:01.459Z,16.50
2023-03-04T12:14:31.524Z,17.50
2023-03-04T12:17:10.309Z,17.90
2023-03-04T12:19:46.123Z,17.90
2023-03-04T12:22:27.812Z,17.00
2023-03-04T12:25:06.663Z,17.30
2023-03-04T12:27:33.239Z,17.80
2023-03-04T12:30:07.559Z,17.50
2023-03-04T12:32:44.950Z,17.10
2023-03-04T12:35:14.688Z,17.00
2023-03-04T12:37:49.577Z,17.70
2023-03-04T12:40:16.531Z,18.30
2023-03-04T12:43:02.178Z,18.80
2023-03-04T12:45:54.304Z,18.40
2023-03-04T12:48:36.235Z,18.50
2023-03-04T12:51:21.761Z,18.30
2023-03-04T12:53:48.340Z,18.10
2023-03-04T12:56:22.019Z,18.20
2023-03-04T12:58:48.981Z,18.50
2023-03-04T13:01:16.059Z,18.90
2023-03-04T13:03:55.057Z,19.10
2023-03-04T13:06:34.457Z,19.30
2023-03-04T13:09:07.293Z,19.40
2023-03-04T13:11:40.498Z,18.90
2023-03-04T13:14:09.578Z,18.30
2023-03-04T13:16:39.075Z,18.10
2023-03-04T13:19:28.766Z,18.00
2023-03-04T13:21:55.351Z,18.00
2023-03-04T13:24:40.758Z,17.20
2023-03-04T13:27:26.316Z,17.00
2023-03-04T13:29:53.221Z,17.50
2023-03-04T13:32:36.928Z,16.80
2023-03-04T13:35:23.893Z,15.90
2023-03-04T13:37:57.640Z,15.30
2023-03-04T13:40:31.829Z,14.50
2023-03-04T13:43:17.957Z,14.70
2023-03-04T13:45:44.547Z,14.40
2023-03-04T13:48:24.893Z,14.30
2023-03-04T13:50:51.725Z,13.20
2023-03-04T13:53:39.122Z,14.00
2023-03-04T13:56:08.434Z,13.60
2023-03-04T13:58:35.435Z,14.00
2023-03-04T14:01:02.056Z,14.50
2023-03-04T14:03:30.517Z,14.90
2023-03-04T14:06:18.006Z,15.30
2023-03-04T14:08:48.125Z,15.10
2023-03-04T14:11:29.115Z,15.30
2023-03-04T14:13:56.956Z,15.50
2023-03-04T14:16:25.873Z,15.50
2023-03-04T14:18:59.731Z,15.70
2023-03-04T14:21:26.492Z,16.00
2023-03-04T14:24:00.297Z,15.80
2023-03-04T14:26:27.198Z,16.10
2023-03-04T14:28:57.322Z,16.00
2023-03-04T14:31:24.532Z,16.20
2023-03-04T14:33:54.248Z,16.00
2023-03-04T14:36:23.429Z,16.20
2023-03-04T14:38:52.550Z,14.80
2023-03-04T14:41:20.885Z,14.80
2023-03-04T14:43:56.708Z,14.50
2023-03-04T14:46:24.644Z,14.70
2023-03-04T14:48:52.356Z,14.30
2023-03-04T14:51:38.050Z,13.70
2023-03-04T14:54:05.381Z,13.30
2023-03-04T14:56:34.284Z,13.00
2023-03-04T14:59:00.930Z,13.10
2023-03-04T15:01:32.432Z,12.80
2023-03-04T15:04:09.612Z,12.90
2023-03-04T15:06:40.835Z,11.70
2023-03-04T15:09:08.995Z,11.70
2023-03-04T15:11:41.694Z,11.30
2023-03-04T15:14:28.326Z,11.00
2023-03-04T15:16:56.943Z,10.40
2023-03-04T15:19:24.977Z,10.30
2023-03-04T15:21:51.859Z,9.30
2023-03-04T15:24:18.422Z,9.30
2023-03-04T15:26:46.026Z,9.30
2023-03-04T15:29:16.838Z,9.30
2023-03-04T15:31:44.126Z,9.00
2023-03-04T15:34:14.304Z,8.60
2023-03-04T15:36:41.579Z,8.30
2023-03-04T15:39:10.854Z,8.10
2023-03-04T15:41:37.431Z,7.80
2023-03-04T15:44:04.034Z,7.60
2023-03-04T15:46:30.662Z,7.50
2023-03-04T15:48:57.244Z,8.40
2023-03-04T15:51:23.901Z,7.20
2023-03-04T15:53:51.589Z,7.00
2023-03-04T15:56:20.153Z,6.80
2023-03-04T15:58:48.419Z,6.60
2023-03-04T16:01:16.331Z,6.50
2023-03-04T16:03:43.183Z,6.50
2023-03-04T16:06:10.630Z,6.50
2023-03-04T16:08:37.430Z,6.30
2023-03-04T16:11:04.517Z,6.10
2023-03-04T16:13:31.114Z,5.90
2023-03-04T16:15:57.767Z,5.80
2023-03-04T16:18:24.454Z,5.70
2023-03-04T16:20:51.434Z,5.70
2023-03-04T16:23:22.446Z,5.50
2023-03-04T16:25:50.595Z,5.30
2023-03-04T16:28:17.210Z,5.40
2023-03-04T16:30:44.085Z,5.30
2023-03-04T16:33:11.513Z,5.20
2023-03-04T16:35:38.941Z,5.20
2023-03-04T16:38:07.313Z,5.10
2023-03-04T16:40:33.909Z,5.00
2023-03-04T16:43:00.645Z,5.00
2023-03-04T16:45:30.181Z,4.70
2023-03-04T16:47:56.826Z,4.60
2023-03-04T16:50:27.131Z,4.40
2023-03-04T16:52:54.597Z,4.30
2023-03-04T16:55:22.667Z,4.20
2023-03-04T16:57:49.768Z,4.10
2023-03-04T17:00:18.272Z,4.10
2023-03-04T17:02:45.544Z,4.00
2023-03-04T17:05:19.473Z,3.90
2023-03-04T17:07:46.046Z,3.90
2023-03-04T17:10:13.966Z,3.90
2023-03-04T17:12:41.033Z,3.90
2023-03-04T17:15:09.882Z,3.80
2023-03-04T17:17:36.465Z,3.80
2023-03-04T17:20:05.997Z,3.60
2023-03-04T17:22:33.207Z,4.40
2023-03-04T17:25:00.073Z,4.80
2023-03-04T17:27:26.663Z,3.60
2023-03-04T17:29:53.306Z,3.50
2023-03-04T17:32:20.011Z,3.60
2023-03-04T17:34:46.633Z,3.60
2023-03-04T17:37:13.315Z,3.50
2023-03-04T17:39:39.968Z,3.40
2023-03-04T17:42:06.819Z,3.30
2023-03-04T17:44:33.409Z,3.20
2023-03-04T17:47:00.048Z,3.10
2023-03-04T17:49:26.647Z,3.20
2023-03-04T17:51:53.758Z,3.10
2023-03-04T17:54:20.411Z,3.20
2023-03-04T17:56:47.050Z,3.30
2023-03-04T17:59:17.202Z,3.30
2023-03-04T18:01:47.444Z,3.20
2023-03-04T18:04:14.393Z,3.10
2023-03-04T18:06:41.600Z,3.00
2023-03-04T18:09:08.509Z,3.00
2023-03-04T18:11:37.413Z,3.00
2023-03-04T18:14:04.078Z,3.10
2023-03-04T18:16:30.828Z,3.00
2023-03-04T18:18:58.120Z,3.00
2023-03-04T18:21:25.676Z,3.10
2023-03-04T18:23:52.605Z,3.00
2023-03-04T18:26:22.608Z,3.00
2023-03-04T18:28:49.773Z,3.10
2023-03-04T18:31:20.556Z,2.90
2023-03-04T18:33:47.240Z,2.90
2023-03-04T18:36:14.176Z,2.90
2023-03-04T18:38:41.237Z,2.90
2023-03-04T18:41:09.777Z,2.90
2023-03-04T18:43:36.460Z,2.70
2023-03-04T18:46:08.085Z,2.50
2023-03-04T18:48:38.007Z,2.50
2023-03-04T18:51:04.650Z,2.50
2023-03-04T18:53:31.318Z,2.40
2023-03-04T18:56:03.063Z,2.40
2023-03-04T18:58:31.395Z,2.40
2023-03-04T19:00:58.450Z,2.40
2023-03-04T19:03:25.189Z,2.30
2023-03-04T19:05:51.820Z,2.40
2023-03-04T19:08:18.535Z,2.40
2023-03-04T19:10:45.107Z,2.50
2023-03-04T19:13:11.686Z,2.50
2023-03-04T19:15:38.344Z,2.60
2023-03-04T19:18:05.532Z,2.50
2023-03-04T19:20:32.478Z,2.50
2023-03-04T19:22:59.059Z,2.40
2023-03-04T19:25:25.640Z,2.40
2023-03-04T19:27:55.225Z,3.90
2023-03-04T19:30:22.090Z,2.40
2023-03-04T19:32:49.138Z,2.40
2023-03-04T19:35:16.268Z,2.40
2023-03-04T19:37:42.881Z,2.50
2023-03-04T19:40:10.393Z,2.50
2023-03-04T19:42:37.435Z,2.50
2023-03-04T19:45:09.368Z,2.50
2023-03-04T19:47:36.798Z,2.50
2023-03-04T19:50:04.455Z,2.40
2023-03-04T19:52:31.634Z,2.30
2023-03-04T19:54:58.228Z,2.30
2023-03-04T19:57:24.868Z,2.40
2023-03-04T19:59:51.453Z,2.30
2023-03-04T20:02:18.025Z,2.40
2023-03-04T20:04:44.754Z,2.30
2023-03-04T20:07:11.414Z,2.40
2023-03-04T20:09:38.141Z,2.40
2023-03-04T20:12:04.848Z,2.40
2023-03-04T20:14:33.305Z,2.40
2023-03-04T20:17:01.489Z,2.40
2023-03-04T20:19:29.241Z,2.50
2023-03-04T20:21:56.441Z,2.40
2023-03-04T20:24:23.792Z,2.30
2023-03-04T20:26:50.724Z,2.40
2023-03-04T20:29:17.546Z,2.40
2023-03-04T20:31:47.162Z,2.40
2023-03-04T20:34:14.003Z,2.40
2023-03-04T20:36:40.637Z,2.40
2023-03-04T20:39:18.287Z,2.40
2023-03-04T20:41:54.044Z,2.40
2023-03-04T20:44:20.614Z,2.40
2023-03-04T20:46:47.211Z,2.30
2023-03-04T20:49:22.013Z,2.30
2023-03-04T20:51:49.294Z,2.20
2023-03-04T20:54:15.996Z,2.10
2023-03-04T20:56:42.724Z,2.00
2023-03-04T20:59:09.865Z,1.90
2023-03-04T21:01:37.443Z,1.90
2023-03-04T21:04:04.731Z,1.90
2023-03-04T21:06:32.412Z,1.80
2023-03-04T21:09:04.770Z,1.90
2023-03-04T21:11:31.507Z,1.80
2023-03-04T21:13:58.205Z,1.80
2023-03-04T21:16:26.453Z,1.70
2023-03-04T21:18:53.359Z,1.70
2023-03-04T21:21:22.130Z,1.70
2023-03-04T21:23:52.558Z,1.70
2023-03-04T21:26:19.591Z,1.70
2023-03-04T21:28:46.535Z,1.70
2023-03-04T21:31:17.612Z,1.80
2023-03-04T21:33:45.086Z,1.90
2023-03-04T21:36:13.790Z,2.00
2023-03-04T21:38:41.209Z,1.90
2023-03-04T21:41:11.493Z,1.70
2023-03-04T21:43:38.074Z,1.80
2023-03-04T21:46:05.453Z,1.60
2023-03-04T21:48:32.053Z,1.60
2023-03-04T21:51:06.183Z,1.40
2023-03-04T21:53:34.090Z,1.20
2023-03-04T21:56:00.980Z,1.30
2023-03-04T21:58:28.037Z,1.30
2023-03-04T22:00:54.909Z,1.30
2023-03-04T22:03:22.193Z,1.30
2023-03-04T22:05:48.941Z,1.30
2023-03-04T22:08:16.787Z,1.20
2023-03-04T22:10:43.497Z,1.20
2023-03-04T22:13:11.766Z,1.20
2023-03-04T22:15:39.582Z,1.30
2023-03-04T22:18:07.719Z,1.10
2023-03-04T22:20:35.796Z,1.20
2023-03-04T22:23:02.414Z,1.10
2023-03-04T22:25:29.206Z,1.20
2023-03-04T22:27:55.830Z,1.10
2023-03-04T22:30:22.938Z,1.10
2023-03-04T22:32:49.613Z,1.10
2023-03-04T22:35:16.318Z,1.10
2023-03-04T22:37:43.288Z,1.10
2023-03-04T22:40:11.499Z,1.10
2023-03-04T22:42:38.132Z,1.00
2023-03-04T22:45:05.065Z,1.10
2023-03-04T22:47:31.630Z,1.30
2023-03-04T22:49:58.198Z,1.20
2023-03-04T22:52:24.764Z,1.20
2023-03-04T22:54:52.070Z,1.10
2023-03-04T22:57:18.654Z,1.00
2023-03-04T22:59:45.215Z,1.20
2023-03-04T23:02:11.864Z,1.30
2023-03-04T23:04:38.521Z,1.30
2023-03-04T23:07:05.373Z,1.40
2023-03-04T23:09:32.048Z,1.50
2023-03-04T23:11:58.665Z,1.50
2023-03-04T23:14:25.299Z,1.50
2023-03-04T23:16:52.003Z,1.50
2023-03-04T23:19:18.715Z,1.40
2023-03-04T23:21:45.380Z,1.40
2023-03-04T23:24:12.476Z,1.30
2023-03-04T23:26:40.633Z,1.40
2023-03-04T23:29:08.649Z,1.30
2023-03-04T23:31:35.469Z,1.40
2023-03-04T23:34:02.483Z,1.40
2023-03-04T23:36:30.848Z,1.50
2023-03-04T23:38:57.783Z,1.60
2023-03-04T23:41:25.462Z,1.60
2023-03-04T23:43:52.964Z,1.70
2023-03-04T23:46:20.003Z,1.70
2023-03-04T23:48:47.092Z,1.80
2023-03-04T23:51:14.401Z,1.90
2023-03-04T23:53:40.996Z,1.80
2023-03-04T23:56:11.290Z,1.60
2023-03-04T23:58:38.292Z,1.60
